sensor_id;sensor_type;location;lat;lon;timestamp;noise_LAeq;noise_LA_min;noise_LA_max;noise_LA01;noise_LA95
11999;Laerm;40817;51.520;9.954;2023-12-29T00:02:18;43.90;39.21;56.29;;
11999;Laerm;40817;51.520;9.954;2023-12-29T00:04:45;43.25;40.18;45.17;;
11999;Laerm;40817;51.520;9.954;2023-12-29T00:07:12;43.84;40.03;53.86;;
11999;Laerm;40817;51.520;9.954;2023-12-29T00:09:40;44.62;39.81;59.04;;
11999;Laerm;40817;51.520;9.954;2023-12-29T00:12:08;43.96;41.14;46.23;;
11999;Laerm;40817;51.520;9.954;2023-12-29T00:14:39;44.61;41.22;54.04;;
11999;Laerm;40817;51.520;9.954;2023-12-29T00:17:09;43.43;40.33;48.08;;
11999;Laerm;40817;51.520;9.954;2023-12-29T00:19:37;43.95;40.36;55.64;;
11999;Laerm;40817;51.520;9.954;2023-12-29T00:22:04;44.18;40.62;51.74;;
11999;Laerm;40817;51.520;9.954;2023-12-29T00:24:31;44.60;40.71;54.67;;
11999;Laerm;40817;51.520;9.954;2023-12-29T00:26:59;43.32;40.23;53.36;;
11999;Laerm;40817;51.520;9.954;2023-12-29T00:29:27;43.38;40.33;52.96;;
11999;Laerm;40817;51.520;9.954;2023-12-29T00:31:58;43.63;40.71;48.78;;
11999;Laerm;40817;51.520;9.954;2023-12-29T00:34:27;43.96;41.38;47.12;;
11999;Laerm;40817;51.520;9.954;2023-12-29T00:36:55;43.38;40.43;48.23;;
11999;Laerm;40817;51.520;9.954;2023-12-29T00:39:22;43.40;40.03;53.54;;
11999;Laerm;40817;51.520;9.954;2023-12-29T00:41:54;43.68;40.79;53.48;;
11999;Laerm;40817;51.520;9.954;2023-12-29T00:44:23;43.88;40.43;54.50;;
11999;Laerm;40817;51.520;9.954;2023-12-29T00:46:50;43.30;40.23;55.16;;
11999;Laerm;40817;51.520;9.954;2023-12-29T00:49:17;44.96;40.98;61.66;;
11999;Laerm;40817;51.520;9.954;2023-12-29T00:51:48;43.60;40.03;60.71;;
11999;Laerm;40817;51.520;9.954;2023-12-29T00:54:15;43.91;40.71;50.72;;
11999;Laerm;40817;51.520;9.954;2023-12-29T00:56:48;44.00;41.55;58.03;;
11999;Laerm;40817;51.520;9.954;2023-12-29T00:59:15;44.77;41.14;56.05;;
11999;Laerm;40817;51.520;9.954;2023-12-29T01:01:42;44.53;41.30;56.70;;
11999;Laerm;40817;51.520;9.954;2023-12-29T01:04:10;44.89;40.80;56.39;;
11999;Laerm;40817;51.520;9.954;2023-12-29T01:06:37;45.95;41.53;60.78;;
11999;Laerm;40817;51.520;9.954;2023-12-29T01:09:06;44.87;41.38;58.60;;
11999;Laerm;40817;51.520;9.954;2023-12-29T01:11:36;44.85;40.80;63.20;;
11999;Laerm;40817;51.520;9.954;2023-12-29T01:14:03;44.31;41.38;54.94;;
11999;Laerm;40817;51.520;9.954;2023-12-29T01:16:31;44.05;40.80;52.61;;
11999;Laerm;40817;51.520;9.954;2023-12-29T01:18:59;44.63;41.06;65.24;;
11999;Laerm;40817;51.520;9.954;2023-12-29T01:21:26;44.78;41.53;56.87;;
11999;Laerm;40817;51.520;9.954;2023-12-29T01:23:54;45.03;40.98;57.81;;
11999;Laerm;40817;51.520;9.954;2023-12-29T01:26:22;45.12;41.53;60.29;;
11999;Laerm;40817;51.520;9.954;2023-12-29T01:28:49;44.37;41.30;54.97;;
11999;Laerm;40817;51.520;9.954;2023-12-29T01:31:17;46.46;40.80;64.28;;
11999;Laerm;40817;51.520;9.954;2023-12-29T01:33:45;44.88;41.89;52.14;;
11999;Laerm;40817;51.520;9.954;2023-12-29T01:36:18;46.21;41.68;60.36;;
11999;Laerm;40817;51.520;9.954;2023-12-29T01:38:45;44.51;41.46;55.36;;
11999;Laerm;40817;51.520;9.954;2023-12-29T01:41:13;46.73;41.96;58.29;;
11999;Laerm;40817;51.520;9.954;2023-12-29T01:44:21;46.37;41.68;58.54;;
11999;Laerm;40817;51.520;9.954;2023-12-29T01:46:53;47.65;42.16;59.08;;
11999;Laerm;40817;51.520;9.954;2023-12-29T01:49:21;46.99;41.30;63.39;;
11999;Laerm;40817;51.520;9.954;2023-12-29T01:51:53;46.83;40.98;60.64;;
11999;Laerm;40817;51.520;9.954;2023-12-29T01:54:23;44.88;40.98;53.72;;
11999;Laerm;40817;51.520;9.954;2023-12-29T01:56:54;47.58;41.96;66.35;;
11999;Laerm;40817;51.520;9.954;2023-12-29T01:59:24;44.42;41.38;56.55;;
11999;Laerm;40817;51.520;9.954;2023-12-29T02:01:53;44.54;41.68;55.99;;
11999;Laerm;40817;51.520;9.954;2023-12-29T02:04:21;44.36;41.22;52.08;;
11999;Laerm;40817;51.520;9.954;2023-12-29T02:06:50;44.19;41.53;54.98;;
11999;Laerm;40817;51.520;9.954;2023-12-29T02:09:18;46.42;41.30;65.12;;
11999;Laerm;40817;51.520;9.954;2023-12-29T02:11:45;44.55;41.30;53.64;;
11999;Laerm;40817;51.520;9.954;2023-12-29T02:14:14;44.94;41.38;60.58;;
11999;Laerm;40817;51.520;9.954;2023-12-29T02:16:56;44.17;41.14;56.08;;
11999;Laerm;40817;51.520;9.954;2023-12-29T02:19:40;46.14;40.13;59.89;;
11999;Laerm;40817;51.520;9.954;2023-12-29T02:22:08;48.13;41.14;64.55;;
11999;Laerm;40817;51.520;9.954;2023-12-29T02:24:37;46.22;41.22;60.99;;
11999;Laerm;40817;51.520;9.954;2023-12-29T02:27:35;44.89;40.98;60.40;;
11999;Laerm;40817;51.520;9.954;2023-12-29T02:30:11;44.46;41.82;52.07;;
11999;Laerm;40817;51.520;9.954;2023-12-29T02:32:43;44.69;41.96;54.93;;
11999;Laerm;40817;51.520;9.954;2023-12-29T02:35:17;45.58;40.98;55.37;;
11999;Laerm;40817;51.520;9.954;2023-12-29T02:37:45;43.93;41.61;48.24;;
11999;Laerm;40817;51.520;9.954;2023-12-29T02:40:14;46.68;41.14;62.13;;
11999;Laerm;40817;51.520;9.954;2023-12-29T02:42:47;45.37;40.53;59.46;;
11999;Laerm;40817;51.520;9.954;2023-12-29T02:45:14;47.21;41.06;62.57;;
11999;Laerm;40817;51.520;9.954;2023-12-29T02:47:42;44.40;41.06;53.02;;
11999;Laerm;40817;51.520;9.954;2023-12-29T02:50:11;45.65;41.30;57.72;;
11999;Laerm;40817;51.520;9.954;2023-12-29T02:52:38;47.06;40.80;63.79;;
11999;Laerm;40817;51.520;9.954;2023-12-29T02:55:06;44.65;41.06;57.82;;
11999;Laerm;40817;51.520;9.954;2023-12-29T02:57:34;45.16;41.14;54.64;;
11999;Laerm;40817;51.520;9.954;2023-12-29T03:00:03;45.37;41.75;56.26;;
11999;Laerm;40817;51.520;9.954;2023-12-29T03:02:31;46.35;41.96;64.42;;
11999;Laerm;40817;51.520;9.954;2023-12-29T03:04:58;44.14;41.38;52.50;;
11999;Laerm;40817;51.520;9.954;2023-12-29T03:07:26;43.85;41.22;50.57;;
11999;Laerm;40817;51.520;9.954;2023-12-29T03:09:53;44.78;40.23;58.62;;
11999;Laerm;40817;51.520;9.954;2023-12-29T03:12:21;44.26;40.62;52.65;;
11999;Laerm;40817;51.520;9.954;2023-12-29T03:14:48;43.67;40.03;55.13;;
11999;Laerm;40817;51.520;9.954;2023-12-29T03:17:17;44.59;41.06;55.39;;
11999;Laerm;40817;51.520;9.954;2023-12-29T03:19:44;43.43;40.43;49.96;;
11999;Laerm;40817;51.520;9.954;2023-12-29T03:22:11;45.88;40.71;60.72;;
11999;Laerm;40817;51.520;9.954;2023-12-29T03:24:41;45.71;41.06;60.32;;
11999;Laerm;40817;51.520;9.954;2023-12-29T03:27:08;44.79;41.46;58.36;;
11999;Laerm;40817;51.520;9.954;2023-12-29T03:29:36;44.97;40.89;57.30;;
11999;Laerm;40817;51.520;9.954;2023-12-29T03:32:04;46.11;41.30;59.63;;
11999;Laerm;40817;51.520;9.954;2023-12-29T03:34:34;44.63;41.22;52.66;;
11999;Laerm;40817;51.520;9.954;2023-12-29T03:37:01;44.86;41.46;61.23;;
11999;Laerm;40817;51.520;9.954;2023-12-29T03:39:29;45.12;41.38;55.77;;
11999;Laerm;40817;51.520;9.954;2023-12-29T03:41:56;44.59;41.38;56.65;;
11999;Laerm;40817;51.520;9.954;2023-12-29T03:44:24;45.86;41.55;59.93;;
11999;Laerm;40817;51.520;9.954;2023-12-29T03:46:51;45.07;41.06;55.80;;
11999;Laerm;40817;51.520;9.954;2023-12-29T03:49:18;46.21;41.14;61.96;;
11999;Laerm;40817;51.520;9.954;2023-12-29T03:51:47;47.42;41.96;63.64;;
11999;Laerm;40817;51.520;9.954;2023-12-29T03:54:14;45.48;41.53;59.67;;
11999;Laerm;40817;51.520;9.954;2023-12-29T03:56:43;44.24;41.14;52.42;;
11999;Laerm;40817;51.520;9.954;2023-12-29T03:59:10;44.62;41.96;52.49;;
11999;Laerm;40817;51.520;9.954;2023-12-29T04:01:37;44.69;40.98;54.67;;
11999;Laerm;40817;51.520;9.954;2023-12-29T04:04:04;44.37;41.14;55.70;;
11999;Laerm;40817;51.520;9.954;2023-12-29T04:06:32;44.11;41.14;55.81;;
11999;Laerm;40817;51.520;9.954;2023-12-29T04:09:00;43.88;41.14;47.48;;
11999;Laerm;40817;51.520;9.954;2023-12-29T04:11:27;43.63;40.98;50.06;;
11999;Laerm;40817;51.520;9.954;2023-12-29T04:13:55;44.78;40.71;55.80;;
11999;Laerm;40817;51.520;9.954;2023-12-29T04:16:22;45.40;41.94;55.64;;
11999;Laerm;40817;51.520;9.954;2023-12-29T04:18:49;45.93;41.61;57.77;;
11999;Laerm;40817;51.520;9.954;2023-12-29T04:21:17;44.02;41.06;51.70;;
11999;Laerm;40817;51.520;9.954;2023-12-29T04:23:44;46.74;41.82;59.72;;
11999;Laerm;40817;51.520;9.954;2023-12-29T04:26:12;45.16;41.14;58.98;;
11999;Laerm;40817;51.520;9.954;2023-12-29T04:28:40;47.22;42.22;65.15;;
11999;Laerm;40817;51.520;9.954;2023-12-29T04:31:07;45.72;41.96;60.24;;
11999;Laerm;40817;51.520;9.954;2023-12-29T04:33:34;45.11;41.89;56.41;;
11999;Laerm;40817;51.520;9.954;2023-12-29T04:36:02;46.21;42.35;56.65;;
11999;Laerm;40817;51.520;9.954;2023-12-29T04:38:29;46.22;42.16;59.45;;
11999;Laerm;40817;51.520;9.954;2023-12-29T04:40:56;44.19;41.75;52.91;;
11999;Laerm;40817;51.520;9.954;2023-12-29T04:43:25;44.76;41.75;59.48;;
11999;Laerm;40817;51.520;9.954;2023-12-29T04:45:52;43.90;41.46;48.49;;
11999;Laerm;40817;51.520;9.954;2023-12-29T04:48:19;44.50;41.38;51.73;;
11999;Laerm;40817;51.520;9.954;2023-12-29T04:50:47;46.01;41.11;60.41;;
11999;Laerm;40817;51.520;9.954;2023-12-29T04:53:14;44.77;41.06;50.78;;
11999;Laerm;40817;51.520;9.954;2023-12-29T04:55:41;46.08;41.38;62.26;;
11999;Laerm;40817;51.520;9.954;2023-12-29T04:58:09;44.10;41.68;51.87;;
11999;Laerm;40817;51.520;9.954;2023-12-29T05:00:37;45.73;41.82;64.80;;
11999;Laerm;40817;51.520;9.954;2023-12-29T05:03:05;44.07;41.22;51.24;;
11999;Laerm;40817;51.520;9.954;2023-12-29T05:05:32;46.48;41.61;66.45;;
11999;Laerm;40817;51.520;9.954;2023-12-29T05:07:59;43.89;41.06;46.23;;
11999;Laerm;40817;51.520;9.954;2023-12-29T05:10:26;44.12;41.38;54.79;;
11999;Laerm;40817;51.520;9.954;2023-12-29T05:12:54;53.52;41.46;75.69;;
11999;Laerm;40817;51.520;9.954;2023-12-29T05:15:21;51.21;43.34;70.58;;
11999;Laerm;40817;51.520;9.954;2023-12-29T05:17:50;48.48;42.35;73.02;;
11999;Laerm;40817;51.520;9.954;2023-12-29T05:20:17;47.17;40.98;73.40;;
11999;Laerm;40817;51.520;9.954;2023-12-29T05:22:45;44.49;42.09;57.59;;
11999;Laerm;40817;51.520;9.954;2023-12-29T05:25:12;44.39;41.82;57.93;;
11999;Laerm;40817;51.520;9.954;2023-12-29T05:27:39;45.81;42.09;64.13;;
11999;Laerm;40817;51.520;9.954;2023-12-29T05:30:08;48.21;42.16;60.44;;
11999;Laerm;40817;51.520;9.954;2023-12-29T05:32:35;49.96;42.93;63.13;;
11999;Laerm;40817;51.520;9.954;2023-12-29T05:35:05;46.09;42.65;64.97;;
11999;Laerm;40817;51.520;9.954;2023-12-29T05:37:33;44.77;41.89;53.04;;
11999;Laerm;40817;51.520;9.954;2023-12-29T05:40:00;44.92;40.53;53.33;;
11999;Laerm;40817;51.520;9.954;2023-12-29T05:42:28;44.88;42.59;60.84;;
11999;Laerm;40817;51.520;9.954;2023-12-29T05:44:55;45.40;41.68;57.82;;
11999;Laerm;40817;51.520;9.954;2023-12-29T05:47:23;46.91;42.35;60.33;;
11999;Laerm;40817;51.520;9.954;2023-12-29T05:49:50;44.76;41.75;52.74;;
11999;Laerm;40817;51.520;9.954;2023-12-29T05:52:19;47.61;42.16;61.47;;
11999;Laerm;40817;51.520;9.954;2023-12-29T05:54:46;45.79;43.09;55.34;;
11999;Laerm;40817;51.520;9.954;2023-12-29T05:57:14;46.27;42.09;57.79;;
11999;Laerm;40817;51.520;9.954;2023-12-29T05:59:41;45.80;42.16;56.82;;
11999;Laerm;40817;51.520;9.954;2023-12-29T06:02:08;47.39;42.65;64.37;;
11999;Laerm;40817;51.520;9.954;2023-12-29T06:04:36;46.68;41.96;58.97;;
11999;Laerm;40817;51.520;9.954;2023-12-29T06:07:04;44.73;41.46;54.82;;
11999;Laerm;40817;51.520;9.954;2023-12-29T06:09:32;48.74;42.03;62.56;;
11999;Laerm;40817;51.520;9.954;2023-12-29T06:12:00;46.48;41.82;61.92;;
11999;Laerm;40817;51.520;9.954;2023-12-29T06:14:27;45.55;42.09;57.88;;
11999;Laerm;40817;51.520;9.954;2023-12-29T06:16:54;45.00;41.06;58.10;;
11999;Laerm;40817;51.520;9.954;2023-12-29T06:19:22;45.62;42.09;53.30;;
11999;Laerm;40817;51.520;9.954;2023-12-29T06:21:49;46.73;42.03;59.51;;
11999;Laerm;40817;51.520;9.954;2023-12-29T06:24:17;44.93;41.96;53.99;;
11999;Laerm;40817;51.520;9.954;2023-12-29T06:26:45;45.27;41.75;56.09;;
11999;Laerm;40817;51.520;9.954;2023-12-29T06:29:14;46.08;42.22;63.34;;
11999;Laerm;40817;51.520;9.954;2023-12-29T06:31:41;46.18;42.47;61.10;;
11999;Laerm;40817;51.520;9.954;2023-12-29T06:34:09;45.77;42.22;63.37;;
11999;Laerm;40817;51.520;9.954;2023-12-29T06:36:36;46.07;42.09;57.16;;
11999;Laerm;40817;51.520;9.954;2023-12-29T06:39:04;44.79;42.03;58.98;;
11999;Laerm;40817;51.520;9.954;2023-12-29T06:41:31;45.73;42.22;55.75;;
11999;Laerm;40817;51.520;9.954;2023-12-29T06:44:00;46.66;42.47;62.18;;
11999;Laerm;40817;51.520;9.954;2023-12-29T06:46:27;44.81;42.03;53.91;;
11999;Laerm;40817;51.520;9.954;2023-12-29T06:48:55;44.28;41.96;53.38;;
11999;Laerm;40817;51.520;9.954;2023-12-29T06:51:22;44.12;41.38;48.16;;
11999;Laerm;40817;51.520;9.954;2023-12-29T06:53:50;44.52;40.33;55.32;;
11999;Laerm;40817;51.520;9.954;2023-12-29T06:56:18;45.43;41.96;53.66;;
11999;Laerm;40817;51.520;9.954;2023-12-29T06:58:44;47.07;42.53;60.17;;
11999;Laerm;40817;51.520;9.954;2023-12-29T07:01:13;45.07;42.22;52.42;;
11999;Laerm;40817;51.520;9.954;2023-12-29T07:03:41;45.21;42.29;52.69;;
11999;Laerm;40817;51.520;9.954;2023-12-29T07:06:10;45.02;41.68;54.46;;
11999;Laerm;40817;51.520;9.954;2023-12-29T07:08:37;44.77;42.03;63.16;;
11999;Laerm;40817;51.520;9.954;2023-12-29T07:11:09;44.43;41.75;50.56;;
11999;Laerm;40817;51.520;9.954;2023-12-29T07:13:37;44.71;42.16;54.40;;
11999;Laerm;40817;51.520;9.954;2023-12-29T07:16:05;44.32;41.82;49.70;;
11999;Laerm;40817;51.520;9.954;2023-12-29T07:18:34;44.61;41.68;53.42;;
11999;Laerm;40817;51.520;9.954;2023-12-29T07:21:00;44.72;41.89;56.76;;
11999;Laerm;40817;51.520;9.954;2023-12-29T07:23:28;44.92;41.46;60.38;;
11999;Laerm;40817;51.520;9.954;2023-12-29T07:25:55;44.18;41.14;53.46;;
11999;Laerm;40817;51.520;9.954;2023-12-29T07:28:22;44.50;41.82;52.50;;
11999;Laerm;40817;51.520;9.954;2023-12-29T07:30:50;44.21;41.46;49.91;;
11999;Laerm;40817;51.520;9.954;2023-12-29T07:33:17;44.35;41.14;58.08;;
11999;Laerm;40817;51.520;9.954;2023-12-29T07:35:46;44.18;41.06;46.43;;
11999;Laerm;40817;51.520;9.954;2023-12-29T07:38:13;44.91;41.68;54.14;;
11999;Laerm;40817;51.520;9.954;2023-12-29T07:40:40;44.53;41.82;51.30;;
11999;Laerm;40817;51.520;9.954;2023-12-29T07:43:08;44.64;40.53;50.67;;
11999;Laerm;40817;51.520;9.954;2023-12-29T07:45:35;45.08;42.41;59.67;;
11999;Laerm;40817;51.520;9.954;2023-12-29T07:48:05;44.65;41.96;55.74;;
11999;Laerm;40817;51.520;9.954;2023-12-29T07:50:32;44.53;41.75;56.55;;
11999;Laerm;40817;51.520;9.954;2023-12-29T07:53:01;44.71;42.22;51.64;;
11999;Laerm;40817;51.520;9.954;2023-12-29T07:55:29;45.45;41.61;54.93;;
11999;Laerm;40817;51.520;9.954;2023-12-29T07:57:57;45.17;41.89;56.10;;
11999;Laerm;40817;51.520;9.954;2023-12-29T08:00:24;44.70;42.22;49.96;;
11999;Laerm;40817;51.520;9.954;2023-12-29T08:02:52;44.67;42.29;54.08;;
11999;Laerm;40817;51.520;9.954;2023-12-29T08:05:20;45.33;40.13;56.18;;
11999;Laerm;40817;51.520;9.954;2023-12-29T08:07:47;44.81;42.22;54.29;;
11999;Laerm;40817;51.520;9.954;2023-12-29T08:10:16;45.61;42.35;57.07;;
11999;Laerm;40817;51.520;9.954;2023-12-29T08:12:43;44.52;42.16;57.51;;
11999;Laerm;40817;51.520;9.954;2023-12-29T08:15:10;44.95;42.35;53.03;;
11999;Laerm;40817;51.520;9.954;2023-12-29T08:17:38;44.49;41.96;48.99;;
11999;Laerm;40817;51.520;9.954;2023-12-29T08:20:07;45.58;42.03;55.71;;
11999;Laerm;40817;51.520;9.954;2023-12-29T08:22:35;44.81;42.41;50.98;;
11999;Laerm;40817;51.520;9.954;2023-12-29T08:25:04;45.41;42.29;54.69;;
11999;Laerm;40817;51.520;9.954;2023-12-29T08:27:33;45.86;42.03;57.73;;
11999;Laerm;40817;51.520;9.954;2023-12-29T08:30:01;48.06;43.04;58.05;;
11999;Laerm;40817;51.520;9.954;2023-12-29T08:32:28;47.86;42.59;62.16;;
11999;Laerm;40817;51.520;9.954;2023-12-29T08:34:55;44.97;40.89;51.43;;
11999;Laerm;40817;51.520;9.954;2023-12-29T08:37:23;45.86;42.53;63.87;;
11999;Laerm;40817;51.520;9.954;2023-12-29T08:39:50;45.12;42.65;57.78;;
11999;Laerm;40817;51.520;9.954;2023-12-29T08:42:17;45.40;42.35;58.63;;
11999;Laerm;40817;51.520;9.954;2023-12-29T08:44:46;47.92;43.09;59.30;;
11999;Laerm;40817;51.520;9.954;2023-12-29T08:47:13;44.73;42.09;54.01;;
11999;Laerm;40817;51.520;9.954;2023-12-29T08:49:41;44.75;42.09;50.55;;
11999;Laerm;40817;51.520;9.954;2023-12-29T08:52:08;44.72;41.96;56.31;;
11999;Laerm;40817;51.520;9.954;2023-12-29T08:54:35;46.73;42.53;60.07;;
11999;Laerm;40817;51.520;9.954;2023-12-29T08:57:04;44.73;42.65;47.61;;
11999;Laerm;40817;51.520;9.954;2023-12-29T08:59:32;47.95;43.42;59.32;;
11999;Laerm;40817;51.520;9.954;2023-12-29T09:02:01;45.69;42.65;54.57;;
11999;Laerm;40817;51.520;9.954;2023-12-29T09:04:28;44.91;41.82;54.68;;
11999;Laerm;40817;51.520;9.954;2023-12-29T09:06:56;45.05;41.82;58.42;;
11999;Laerm;40817;51.520;9.954;2023-12-29T09:09:23;44.51;42.41;53.21;;
11999;Laerm;40817;51.520;9.954;2023-12-29T09:11:50;44.50;42.03;52.83;;
11999;Laerm;40817;51.520;9.954;2023-12-29T09:14:18;46.67;40.33;62.38;;
11999;Laerm;40817;51.520;9.954;2023-12-29T09:16:45;47.21;42.71;69.19;;
11999;Laerm;40817;51.520;9.954;2023-12-29T09:19:16;45.64;41.22;60.20;;
11999;Laerm;40817;51.520;9.954;2023-12-29T09:21:43;45.48;42.93;52.14;;
11999;Laerm;40817;51.520;9.954;2023-12-29T09:24:11;45.63;42.76;57.21;;
11999;Laerm;40817;51.520;9.954;2023-12-29T09:26:38;45.86;42.79;57.02;;
11999;Laerm;40817;51.520;9.954;2023-12-29T09:29:05;45.42;42.76;56.39;;
11999;Laerm;40817;51.520;9.954;2023-12-29T09:31:33;45.43;41.68;53.72;;
11999;Laerm;40817;51.520;9.954;2023-12-29T09:34:02;44.74;40.89;51.19;;
11999;Laerm;40817;51.520;9.954;2023-12-29T09:36:30;44.72;42.29;58.62;;
11999;Laerm;40817;51.520;9.954;2023-12-29T09:38:58;45.51;42.09;60.90;;
11999;Laerm;40817;51.520;9.954;2023-12-29T09:41:26;49.35;42.41;65.68;;
11999;Laerm;40817;51.520;9.954;2023-12-29T09:43:55;45.45;43.19;57.51;;
11999;Laerm;40817;51.520;9.954;2023-12-29T09:46:23;45.91;42.76;63.04;;
11999;Laerm;40817;51.520;9.954;2023-12-29T09:48:53;45.91;42.29;60.70;;
11999;Laerm;40817;51.520;9.954;2023-12-29T09:51:23;46.00;42.65;63.24;;
11999;Laerm;40817;51.520;9.954;2023-12-29T09:53:52;46.13;43.29;56.13;;
11999;Laerm;40817;51.520;9.954;2023-12-29T09:56:20;46.10;42.53;58.82;;
11999;Laerm;40817;51.520;9.954;2023-12-29T09:58:48;46.32;43.09;57.95;;
11999;Laerm;40817;51.520;9.954;2023-12-29T10:01:18;46.44;42.65;59.97;;
11999;Laerm;40817;51.520;9.954;2023-12-29T10:03:47;44.74;42.09;57.09;;
11999;Laerm;40817;51.520;9.954;2023-12-29T10:06:21;49.04;42.47;62.89;;
11999;Laerm;40817;51.520;9.954;2023-12-29T10:08:53;47.77;42.82;63.59;;
11999;Laerm;40817;51.520;9.954;2023-12-29T10:11:22;49.03;43.09;61.96;;
11999;Laerm;40817;51.520;9.954;2023-12-29T10:13:53;49.48;44.23;64.02;;
11999;Laerm;40817;51.520;9.954;2023-12-29T10:16:31;54.05;45.30;73.58;;
11999;Laerm;40817;51.520;9.954;2023-12-29T10:19:13;55.39;45.75;72.17;;
11999;Laerm;40817;51.520;9.954;2023-12-29T10:21:52;55.25;45.11;72.68;;
11999;Laerm;40817;51.520;9.954;2023-12-29T10:24:26;56.55;44.35;87.91;;
11999;Laerm;40817;51.520;9.954;2023-12-29T10:26:53;52.19;43.04;83.98;;
11999;Laerm;40817;51.520;9.954;2023-12-29T10:29:21;48.07;42.93;74.41;;
11999;Laerm;40817;51.520;9.954;2023-12-29T10:31:50;52.29;43.09;75.81;;
11999;Laerm;40817;51.520;9.954;2023-12-29T10:34:18;54.55;43.09;84.79;;
11999;Laerm;40817;51.520;9.954;2023-12-29T10:36:49;51.87;43.49;72.41;;
11999;Laerm;40817;51.520;9.954;2023-12-29T10:39:17;49.66;43.04;64.71;;
11999;Laerm;40817;51.520;9.954;2023-12-29T10:41:45;48.92;42.35;66.44;;
11999;Laerm;40817;51.520;9.954;2023-12-29T10:44:13;48.89;42.88;71.54;;
11999;Laerm;40817;51.520;9.954;2023-12-29T10:46:40;48.74;42.47;73.20;;
11999;Laerm;40817;51.520;9.954;2023-12-29T10:49:08;48.70;43.09;72.29;;
11999;Laerm;40817;51.520;9.954;2023-12-29T10:51:36;49.67;43.39;72.19;;
11999;Laerm;40817;51.520;9.954;2023-12-29T10:54:04;49.82;42.53;71.43;;
11999;Laerm;40817;51.520;9.954;2023-12-29T10:56:32;49.05;43.44;69.44;;
11999;Laerm;40817;51.520;9.954;2023-12-29T10:59:03;53.50;43.24;74.24;;
11999;Laerm;40817;51.520;9.954;2023-12-29T11:01:33;56.94;45.20;74.48;;
11999;Laerm;40817;51.520;9.954;2023-12-29T11:04:02;56.08;45.60;75.14;;
11999;Laerm;40817;51.520;9.954;2023-12-29T11:06:39;57.90;46.38;73.95;;
11999;Laerm;40817;51.520;9.954;2023-12-29T11:09:07;57.66;44.86;74.93;;
11999;Laerm;40817;51.520;9.954;2023-12-29T11:11:35;59.38;47.72;76.76;;
11999;Laerm;40817;51.520;9.954;2023-12-29T11:14:05;60.11;47.61;78.90;;
11999;Laerm;40817;51.520;9.954;2023-12-29T11:16:32;60.18;44.23;81.13;;
11999;Laerm;40817;51.520;9.954;2023-12-29T11:19:00;56.71;44.54;77.71;;
11999;Laerm;40817;51.520;9.954;2023-12-29T11:21:31;63.12;49.08;82.32;;
11999;Laerm;40817;51.520;9.954;2023-12-29T11:23:58;58.78;45.01;81.56;;
11999;Laerm;40817;51.520;9.954;2023-12-29T11:26:26;58.15;44.73;80.80;;
11999;Laerm;40817;51.520;9.954;2023-12-29T11:28:57;60.92;44.73;81.14;;
11999;Laerm;40817;51.520;9.954;2023-12-29T11:31:27;57.84;44.69;80.91;;
11999;Laerm;40817;51.520;9.954;2023-12-29T11:34:00;57.05;43.90;79.12;;
11999;Laerm;40817;51.520;9.954;2023-12-29T11:36:34;56.88;44.35;77.72;;
11999;Laerm;40817;51.520;9.954;2023-12-29T11:39:19;57.65;44.23;79.25;;
11999;Laerm;40817;51.520;9.954;2023-12-29T11:41:56;55.32;44.43;79.07;;
11999;Laerm;40817;51.520;9.954;2023-12-29T11:44:27;55.22;44.03;77.70;;
11999;Laerm;40817;51.520;9.954;2023-12-29T11:46:57;56.76;45.07;78.87;;
11999;Laerm;40817;51.520;9.954;2023-12-29T11:49:24;55.25;43.81;78.61;;
11999;Laerm;40817;51.520;9.954;2023-12-29T11:51:52;53.67;43.49;82.89;;
11999;Laerm;40817;51.520;9.954;2023-12-29T11:54:24;55.26;43.34;79.49;;
11999;Laerm;40817;51.520;9.954;2023-12-29T11:56:53;51.38;43.19;75.58;;
11999;Laerm;40817;51.520;9.954;2023-12-29T11:59:23;52.86;42.35;81.28;;
11999;Laerm;40817;51.520;9.954;2023-12-29T12:01:52;59.04;44.15;79.24;;
11999;Laerm;40817;51.520;9.954;2023-12-29T12:04:38;59.96;43.81;80.70;;
11999;Laerm;40817;51.520;9.954;2023-12-29T12:07:09;58.06;42.93;80.78;;
11999;Laerm;40817;51.520;9.954;2023-12-29T12:09:39;55.71;43.04;78.05;;
11999;Laerm;40817;51.520;9.954;2023-12-29T12:12:07;61.45;47.93;84.36;;
11999;Laerm;40817;51.520;9.954;2023-12-29T12:14:52;64.60;51.22;85.59;;
11999;Laerm;40817;51.520;9.954;2023-12-29T12:17:33;64.91;50.83;80.34;;
11999;Laerm;40817;51.520;9.954;2023-12-29T12:20:08;63.90;49.23;81.18;;
11999;Laerm;40817;51.520;9.954;2023-12-29T12:22:37;61.92;47.00;78.97;;
11999;Laerm;40817;51.520;9.954;2023-12-29T12:25:06;62.01;47.34;81.36;;
11999;Laerm;40817;51.520;9.954;2023-12-29T12:27:37;59.60;45.66;78.58;;
11999;Laerm;40817;51.520;9.954;2023-12-29T12:30:07;59.86;45.94;78.47;;
11999;Laerm;40817;51.520;9.954;2023-12-29T12:32:36;60.52;44.11;81.38;;
11999;Laerm;40817;51.520;9.954;2023-12-29T12:35:14;63.84;50.06;81.55;;
11999;Laerm;40817;51.520;9.954;2023-12-29T12:37:42;65.74;51.84;79.99;;
11999;Laerm;40817;51.520;9.954;2023-12-29T12:40:11;65.96;55.61;80.65;;
11999;Laerm;40817;51.520;9.954;2023-12-29T12:42:51;61.61;47.93;81.38;;
11999;Laerm;40817;51.520;9.954;2023-12-29T12:45:21;59.04;43.34;83.51;;
11999;Laerm;40817;51.520;9.954;2023-12-29T12:47:54;54.84;43.44;82.67;;
11999;Laerm;40817;51.520;9.954;2023-12-29T12:50:23;52.63;43.93;78.44;;
11999;Laerm;40817;51.520;9.954;2023-12-29T12:52:50;52.78;43.49;79.86;;
11999;Laerm;40817;51.520;9.954;2023-12-29T12:55:18;48.81;42.93;73.22;;
11999;Laerm;40817;51.520;9.954;2023-12-29T12:57:46;47.82;42.93;70.80;;
11999;Laerm;40817;51.520;9.954;2023-12-29T13:00:15;46.45;42.35;65.16;;
11999;Laerm;40817;51.520;9.954;2023-12-29T13:02:45;46.26;42.22;74.73;;
11999;Laerm;40817;51.520;9.954;2023-12-29T13:05:12;46.06;42.65;69.95;;
11999;Laerm;40817;51.520;9.954;2023-12-29T13:07:43;46.95;42.88;69.17;;
11999;Laerm;40817;51.520;9.954;2023-12-29T13:10:11;45.66;42.76;64.58;;
11999;Laerm;40817;51.520;9.954;2023-12-29T13:12:38;45.98;42.76;69.10;;
11999;Laerm;40817;51.520;9.954;2023-12-29T13:15:07;45.93;42.71;68.59;;
11999;Laerm;40817;51.520;9.954;2023-12-29T13:17:34;45.45;42.71;67.47;;
11999;Laerm;40817;51.520;9.954;2023-12-29T13:20:02;45.04;42.59;61.97;;
11999;Laerm;40817;51.520;9.954;2023-12-29T13:22:30;48.12;43.04;71.95;;
11999;Laerm;40817;51.520;9.954;2023-12-29T13:25:00;45.34;42.47;58.84;;
11999;Laerm;40817;51.520;9.954;2023-12-29T13:27:28;46.33;42.98;61.90;;
11999;Laerm;40817;51.520;9.954;2023-12-29T13:29:55;45.32;42.76;58.73;;
11999;Laerm;40817;51.520;9.954;2023-12-29T13:32:25;45.37;42.59;61.79;;
11999;Laerm;40817;51.520;9.954;2023-12-29T13:35:05;45.29;42.88;59.34;;
11999;Laerm;40817;51.520;9.954;2023-12-29T13:37:41;45.76;42.65;62.92;;
11999;Laerm;40817;51.520;9.954;2023-12-29T13:40:20;45.46;43.14;57.74;;
11999;Laerm;40817;51.520;9.954;2023-12-29T13:42:53;46.16;42.98;63.59;;
11999;Laerm;40817;51.520;9.954;2023-12-29T13:45:25;46.19;43.14;61.82;;
11999;Laerm;40817;51.520;9.954;2023-12-29T13:47:55;45.92;42.82;54.92;;
11999;Laerm;40817;51.520;9.954;2023-12-29T13:50:24;45.19;42.93;57.77;;
11999;Laerm;40817;51.520;9.954;2023-12-29T13:52:51;45.31;41.82;62.14;;
11999;Laerm;40817;51.520;9.954;2023-12-29T13:55:23;45.15;42.41;54.57;;